AirNav   Everest Fuels
 
 349 users online  

83KY Works Heliport
Erlanger, Kentucky, USA

GOING TO ERLANGER?


FAA INFORMATION EFFECTIVE 21 MAY 2020

Location

FAA Identifier: 83KY
Lat/Long: 38-58-52.0000N 084-32-41.0000W
38-58.866667N 084-32.683333W
38.9811111,-84.5447222
(estimated)
Elevation: 800 ft. / 244 m (estimated)
From city: 1 mile ESE of ERLANGER, KY
Time zone: UTC -4 (UTC -5 during Standard Time)
Zip code: 41051

Heliport Operations

Heliport use: Private use. Permission required prior to landing
Activation date: 08/2005
Control tower: no
ARTCC: INDIANAPOLIS CENTER
FSS: LOUISVILLE FLIGHT SERVICE STATION
Attendance: UNATNDD
Segmented circle: no

Heliport Communications

WX ASOS at CVG (7 nm NW): PHONE 859-767-8210
WX ASOS at LUK (9 nm NE): 120.25 (513-321-6291)
WX AWOS-3 at I69 (17 nm E): 127.275 (513-732-6978)
WX AWOS-3 at K62 (18 nm SE): 123.825 (859-654-1345)
WX AWOS-3PT at I67 (20 nm NW): 118.15 (513-569-4964)

Nearby radio navigation aids

VOR radial/distance  VOR name  Freq  Var
CVGr110/7.7CINCINNATI VORTAC117.3004W
FLMr335/22.7FALMOUTH VOR/DME117.0004W

 
NDB name  Hdg/Dist  Freq  Var  ID
CINCINNATI226/14.333504WLUK .-.. ..- -.-
SPORTYS254/16.424504WPWF .--. .-- ..-.
HOOK FIELD192/31.423904WHKF .... -.- ..-.
BATESVILLE128/39.825405WHLB .... .-.. -...

Heliport Services

Runway Information

Helipad H1

Dimensions: 60 x 60 ft. / 18 x 18 m
Surface: turf
Traffic pattern: leftleft

Heliport Ownership and Management from official FAA records

Ownership: Privately-owned
Owner: MARK WORKS
211 GRANDVIEW DRIVE #232
FT MITCHELL, KY 41017
Phone 859-653-9115
Manager: MARK WORKS
211 GRANDVIEW DRIVE #232
FT MITCHELL, KY 41017
Phone 859-653-9115

Heliport Operational Statistics

Aircraft based on the field: 1
Helicopters: 1
    

Additional Remarks

FOR CD CTC CINCINNATI APCH AT 859-372-6440

Instrument Procedures

There are no published instrument procedures at 83KY.

Some nearby airports with instrument procedures:

KCVG - Cincinnati/Northern Kentucky International Airport (7 nm NW)
KLUK - Cincinnati Municipal Airport-Lunken Field (9 nm NE)
I69 - Clermont County Airport (17 nm E)
K62 - Gene Snyder Airport (18 nm SE)
I67 - Cincinnati West Airport (20 nm NW)
 
Loc | Ops | Rwys | IFR | FBO | Links
Com | Nav | Svcs | Stats | Notes
Area around 83KY (Works Heliport)
 
Road maps at: MapQuest Bing Google
 
Aerial photo
WARNING: Photo may not be current or correct
Aerial photo of 83KY (Works Heliport)
Photo by Mark Works
Taken in July 2016

Do you have a better or more recent aerial photo of Works Heliport that you would like to share? If so, please send us your photo.

 
Sectional chart

 
Airport distance calculator
Flying to Works Heliport? Find the distance to fly.

From to 83KY

Sunrise and sunset
Times for 31-May-2020
 Local
(UTC-4)
 Zulu
(UTC)
Morning civil twilight05:4409:44
Sunrise06:1510:15
Sunset20:5700:57
Evening civil twilight21:2801:28

Current date and time
Zulu (UTC)  31-May-2020 07:51:11
Local (UTC-4)  31-May-2020 03:51:11
 
METAR
KCVG 
7nm NW 
310652Z 01008KT 10SM CLR 16/06 A3019 RMK AO2 SLP216 T01560061 $
KLUK 
9nm NE 
310653Z AUTO 00000KT 10SM FEW065 12/11 A3019 RMK AO2 SLP222 T01170106
KI69 
17nm E 
310735Z AUTO 00000KT 10SM CLR 13/08 A3020 RMK AO2 T01260083
KI67 
20nm NW 
310735Z AUTO 00000KT 10SM CLR 11/08 A3020 RMK AO1
TAF
KCVG 
7nm NW 
310532Z 3106/0112 36005KT P6SM SKC FM311400 02008KT P6SM SKC FM010000 04003KT P6SM SCT250
KLUK 
9nm NE 
310532Z 3106/0106 VRB03KT P6SM SKC FM311400 01007KT P6SM SKC FM010000 00000KT P6SM SCT250
NOTAMs
Click for the latest NOTAMs
NOTAMs are issued by the DoD/FAA and will open in a separate window not controlled by AirNav.

 

 
 

Would you like to see your business listed on this page?

 If your business provides an interesting product or service to pilots, flight crews, aircraft, or users of the Works Heliport, you should consider listing it here.  To start the listing process, click on the button below
 
Add a business
 

Other Pages about Works Heliport

Update a link
 
Copyright © AirNav, LLC. All rights reserved. Privacy Policy  Contact